sensor_id;sensor_type;location;lat;lon;timestamp;temperature;humidity
10300;DHT22;5195;48.562;9.192;2022-07-01T00:01:33;21.40;59.50
10300;DHT22;5195;48.562;9.192;2022-07-01T00:03:59;21.10;60.30
10300;DHT22;5195;48.562;9.192;2022-07-01T00:06:24;21.10;61.00
10300;DHT22;5195;48.562;9.192;2022-07-01T00:08:50;20.90;61.40
10300;DHT22;5195;48.562;9.192;2022-07-01T00:11:17;20.60;62.20
10300;DHT22;5195;48.562;9.192;2022-07-01T00:13:42;20.60;60.10
10300;DHT22;5195;48.562;9.192;2022-07-01T00:16:08;20.50;60.60
10300;DHT22;5195;48.562;9.192;2022-07-01T00:18:33;20.20;61.20
10300;DHT22;5195;48.562;9.192;2022-07-01T00:20:59;20.30;60.60
10300;DHT22;5195;48.562;9.192;2022-07-01T00:23:24;20.20;61.10
10300;DHT22;5195;48.562;9.192;2022-07-01T00:25:50;20.00;62.10
10300;DHT22;5195;48.562;9.192;2022-07-01T00:28:15;20.20;61.70
10300;DHT22;5195;48.562;9.192;2022-07-01T00:30:41;20.50;60.30
10300;DHT22;5195;48.562;9.192;2022-07-01T00:33:07;20.40;60.40
10300;DHT22;5195;48.562;9.192;2022-07-01T00:35:32;20.10;61.30
10300;DHT22;5195;48.562;9.192;2022-07-01T00:37:58;20.20;61.60
10300;DHT22;5195;48.562;9.192;2022-07-01T00:40:24;20.50;60.80
10300;DHT22;5195;48.562;9.192;2022-07-01T00:42:49;20.40;60.90
10300;DHT22;5195;48.562;9.192;2022-07-01T00:45:14;20.40;57.90
10300;DHT22;5195;48.562;9.192;2022-07-01T00:47:40;20.50;57.50
10300;DHT22;5195;48.562;9.192;2022-07-01T00:50:09;20.20;58.70
10300;DHT22;5195;48.562;9.192;2022-07-01T00:52:34;20.10;57.20
10300;DHT22;5195;48.562;9.192;2022-07-01T00:55:02;19.90;58.50
10300;DHT22;5195;48.562;9.192;2022-07-01T00:57:29;19.50;60.00
10300;DHT22;5195;48.562;9.192;2022-07-01T00:59:52;19.60;60.10
10300;DHT22;5195;48.562;9.192;2022-07-01T01:02:18;19.80;59.70
10300;DHT22;5195;48.562;9.192;2022-07-01T01:04:43;19.70;60.10
10300;DHT22;5195;48.562;9.192;2022-07-01T01:07:09;19.70;59.70
10300;DHT22;5195;48.562;9.192;2022-07-01T01:09:34;19.90;58.80
10300;DHT22;5195;48.562;9.192;2022-07-01T01:12:00;20.10;57.50
10300;DHT22;5195;48.562;9.192;2022-07-01T01:14:25;19.90;58.00
10300;DHT22;5195;48.562;9.192;2022-07-01T01:16:51;19.80;56.60
10300;DHT22;5195;48.562;9.192;2022-07-01T01:19:17;20.00;57.10
10300;DHT22;5195;48.562;9.192;2022-07-01T01:21:42;20.20;57.30
10300;DHT22;5195;48.562;9.192;2022-07-01T01:24:08;20.00;57.80
10300;DHT22;5195;48.562;9.192;2022-07-01T01:26:35;19.70;59.10
10300;DHT22;5195;48.562;9.192;2022-07-01T01:29:00;19.50;60.10
10300;DHT22;5195;48.562;9.192;2022-07-01T01:31:30;19.70;59.50
10300;DHT22;5195;48.562;9.192;2022-07-01T01:33:55;20.10;57.40
10300;DHT22;5195;48.562;9.192;2022-07-01T01:36:21;20.00;57.90
10300;DHT22;5195;48.562;9.192;2022-07-01T01:38:46;19.70;58.60
10300;DHT22;5195;48.562;9.192;2022-07-01T01:41:12;19.50;59.80
10300;DHT22;5195;48.562;9.192;2022-07-01T01:43:37;19.40;60.90
10300;DHT22;5195;48.562;9.192;2022-07-01T01:46:03;19.60;58.90
10300;DHT22;5195;48.562;9.192;2022-07-01T01:48:29;19.70;59.40
10300;DHT22;5195;48.562;9.192;2022-07-01T01:50:54;19.90;59.20
10300;DHT22;5195;48.562;9.192;2022-07-01T01:53:20;20.20;57.00
10300;DHT22;5195;48.562;9.192;2022-07-01T01:55:45;20.00;57.40
10300;DHT22;5195;48.562;9.192;2022-07-01T01:58:11;20.10;56.90
10300;DHT22;5195;48.562;9.192;2022-07-01T02:00:36;20.30;55.30
10300;DHT22;5195;48.562;9.192;2022-07-01T02:03:02;20.10;56.30
10300;DHT22;5195;48.562;9.192;2022-07-01T02:05:29;19.80;57.50
10300;DHT22;5195;48.562;9.192;2022-07-01T02:07:54;19.60;58.60
10300;DHT22;5195;48.562;9.192;2022-07-01T02:10:20;19.40;59.50
10300;DHT22;5195;48.562;9.192;2022-07-01T02:12:45;19.20;60.00
10300;DHT22;5195;48.562;9.192;2022-07-01T02:15:11;19.50;59.00
10300;DHT22;5195;48.562;9.192;2022-07-01T02:17:36;19.80;58.00
10300;DHT22;5195;48.562;9.192;2022-07-01T02:20:02;19.70;58.40
10300;DHT22;5195;48.562;9.192;2022-07-01T02:22:28;19.80;57.90
10300;DHT22;5195;48.562;9.192;2022-07-01T02:24:53;20.00;57.00
10300;DHT22;5195;48.562;9.192;2022-07-01T02:27:19;19.80;57.80
10300;DHT22;5195;48.562;9.192;2022-07-01T02:29:44;19.80;57.80
10300;DHT22;5195;48.562;9.192;2022-07-01T02:32:10;19.70;58.60
10300;DHT22;5195;48.562;9.192;2022-07-01T02:34:37;19.40;59.40
10300;DHT22;5195;48.562;9.192;2022-07-01T02:37:03;19.20;60.10
10300;DHT22;5195;48.562;9.192;2022-07-01T02:39:28;19.00;60.40
10300;DHT22;5195;48.562;9.192;2022-07-01T02:41:54;18.90;60.80
10300;DHT22;5195;48.562;9.192;2022-07-01T02:44:39;19.20;58.60
10300;DHT22;5195;48.562;9.192;2022-07-01T02:47:05;19.20;59.10
10300;DHT22;5195;48.562;9.192;2022-07-01T02:49:31;19.40;58.20
10300;DHT22;5195;48.562;9.192;2022-07-01T02:51:56;19.70;56.80
10300;DHT22;5195;48.562;9.192;2022-07-01T02:54:22;19.60;57.60
10300;DHT22;5195;48.562;9.192;2022-07-01T02:56:47;19.30;58.50
10300;DHT22;5195;48.562;9.192;2022-07-01T02:59:13;19.10;59.40
10300;DHT22;5195;48.562;9.192;2022-07-01T03:01:38;19.30;58.00
10300;DHT22;5195;48.562;9.192;2022-07-01T03:04:04;19.60;57.30
10300;DHT22;5195;48.562;9.192;2022-07-01T03:06:29;19.50;57.90
10300;DHT22;5195;48.562;9.192;2022-07-01T03:08:56;19.20;58.80
10300;DHT22;5195;48.562;9.192;2022-07-01T03:11:22;19.00;59.50
10300;DHT22;5195;48.562;9.192;2022-07-01T03:13:47;19.20;58.30
10300;DHT22;5195;48.562;9.192;2022-07-01T03:16:13;19.20;58.70
10300;DHT22;5195;48.562;9.192;2022-07-01T03:18:38;19.30;58.20
10300;DHT22;5195;48.562;9.192;2022-07-01T03:21:04;19.30;58.50
10300;DHT22;5195;48.562;9.192;2022-07-01T03:23:30;19.00;59.20
10300;DHT22;5195;48.562;9.192;2022-07-01T03:25:55;19.20;58.00
10300;DHT22;5195;48.562;9.192;2022-07-01T03:28:21;19.20;58.60
10300;DHT22;5195;48.562;9.192;2022-07-01T03:30:46;19.40;57.40
10300;DHT22;5195;48.562;9.192;2022-07-01T03:33:12;19.30;57.60
10300;DHT22;5195;48.562;9.192;2022-07-01T03:35:37;19.10;58.60
10300;DHT22;5195;48.562;9.192;2022-07-01T03:38:06;19.30;57.20
10300;DHT22;5195;48.562;9.192;2022-07-01T03:40:32;19.20;57.70
10300;DHT22;5195;48.562;9.192;2022-07-01T03:42:57;19.00;58.60
10300;DHT22;5195;48.562;9.192;2022-07-01T03:45:23;19.20;58.20
10300;DHT22;5195;48.562;9.192;2022-07-01T03:47:48;19.20;58.60
10300;DHT22;5195;48.562;9.192;2022-07-01T03:50:14;19.30;57.60
10300;DHT22;5195;48.562;9.192;2022-07-01T03:52:39;19.50;57.30
10300;DHT22;5195;48.562;9.192;2022-07-01T03:55:05;19.70;56.60
10300;DHT22;5195;48.562;9.192;2022-07-01T03:57:31;19.90;56.50
10300;DHT22;5195;48.562;9.192;2022-07-01T03:59:58;19.70;57.20
10300;DHT22;5195;48.562;9.192;2022-07-01T04:02:23;19.70;57.20
10300;DHT22;5195;48.562;9.192;2022-07-01T04:04:49;19.80;56.40
10300;DHT22;5195;48.562;9.192;2022-07-01T04:07:15;19.60;57.00
10300;DHT22;5195;48.562;9.192;2022-07-01T04:09:41;19.30;58.00
10300;DHT22;5195;48.562;9.192;2022-07-01T04:12:08;19.00;58.80
10300;DHT22;5195;48.562;9.192;2022-07-01T04:14:32;19.20;58.40
10300;DHT22;5195;48.562;9.192;2022-07-01T04:16:58;19.20;58.80
10300;DHT22;5195;48.562;9.192;2022-07-01T04:19:23;19.00;59.30
10300;DHT22;5195;48.562;9.192;2022-07-01T04:21:49;18.80;59.90
10300;DHT22;5195;48.562;9.192;2022-07-01T04:24:34;18.70;60.40
10300;DHT22;5195;48.562;9.192;2022-07-01T04:27:00;19.00;59.00
10300;DHT22;5195;48.562;9.192;2022-07-01T04:29:25;19.00;59.30
10300;DHT22;5195;48.562;9.192;2022-07-01T04:31:51;19.20;58.40
10300;DHT22;5195;48.562;9.192;2022-07-01T04:34:16;19.20;59.00
10300;DHT22;5195;48.562;9.192;2022-07-01T04:36:42;19.00;59.70
10300;DHT22;5195;48.562;9.192;2022-07-01T04:39:07;19.20;59.20
10300;DHT22;5195;48.562;9.192;2022-07-01T04:41:33;19.10;59.10
10300;DHT22;5195;48.562;9.192;2022-07-01T04:44:18;19.40;58.90
10300;DHT22;5195;48.562;9.192;2022-07-01T04:46:45;19.70;58.10
10300;DHT22;5195;48.562;9.192;2022-07-01T04:49:11;19.90;57.90
10300;DHT22;5195;48.562;9.192;2022-07-01T04:51:36;19.70;57.90
10300;DHT22;5195;48.562;9.192;2022-07-01T04:54:02;19.80;57.20
10300;DHT22;5195;48.562;9.192;2022-07-01T04:56:27;19.60;57.80
10300;DHT22;5195;48.562;9.192;2022-07-01T04:58:57;19.70;57.70
10300;DHT22;5195;48.562;9.192;2022-07-01T05:01:23;19.80;57.10
10300;DHT22;5195;48.562;9.192;2022-07-01T05:03:48;20.00;56.90
10300;DHT22;5195;48.562;9.192;2022-07-01T05:06:14;20.00;57.00
10300;DHT22;5195;48.562;9.192;2022-07-01T05:08:40;20.10;57.60
10300;DHT22;5195;48.562;9.192;2022-07-01T05:11:05;19.80;58.00
10300;DHT22;5195;48.562;9.192;2022-07-01T05:13:31;19.40;58.90
10300;DHT22;5195;48.562;9.192;2022-07-01T05:15:56;19.50;58.70
10300;DHT22;5195;48.562;9.192;2022-07-01T05:18:22;19.30;59.00
10300;DHT22;5195;48.562;9.192;2022-07-01T05:21:07;19.00;59.50
10300;DHT22;5195;48.562;9.192;2022-07-01T05:23:53;19.10;59.20
10300;DHT22;5195;48.562;9.192;2022-07-01T05:26:20;19.00;59.70
10300;DHT22;5195;48.562;9.192;2022-07-01T05:28:45;18.70;60.10
10300;DHT22;5195;48.562;9.192;2022-07-01T05:31:12;18.80;59.90
10300;DHT22;5195;48.562;9.192;2022-07-01T05:33:38;19.10;59.20
10300;DHT22;5195;48.562;9.192;2022-07-01T05:36:03;19.40;58.40
10300;DHT22;5195;48.562;9.192;2022-07-01T05:38:29;19.20;59.00
10300;DHT22;5195;48.562;9.192;2022-07-01T05:41:00;18.90;59.90
10300;DHT22;5195;48.562;9.192;2022-07-01T05:43:25;19.00;59.70
10300;DHT22;5195;48.562;9.192;2022-07-01T05:45:51;19.00;60.00
10300;DHT22;5195;48.562;9.192;2022-07-01T05:48:16;18.80;60.40
10300;DHT22;5195;48.562;9.192;2022-07-01T05:50:42;18.90;59.40
10300;DHT22;5195;48.562;9.192;2022-07-01T05:53:07;18.90;59.40
10300;DHT22;5195;48.562;9.192;2022-07-01T05:55:33;19.00;59.50
10300;DHT22;5195;48.562;9.192;2022-07-01T05:57:59;19.20;59.00
10300;DHT22;5195;48.562;9.192;2022-07-01T06:00:25;19.40;58.10
10300;DHT22;5195;48.562;9.192;2022-07-01T06:02:52;19.50;58.30
10300;DHT22;5195;48.562;9.192;2022-07-01T06:05:17;19.30;58.80
10300;DHT22;5195;48.562;9.192;2022-07-01T06:07:43;18.90;59.50
10300;DHT22;5195;48.562;9.192;2022-07-01T06:10:08;18.70;60.30
10300;DHT22;5195;48.562;9.192;2022-07-01T06:12:39;18.90;59.70
10300;DHT22;5195;48.562;9.192;2022-07-01T06:15:09;19.10;59.50
10300;DHT22;5195;48.562;9.192;2022-07-01T06:17:34;19.00;59.70
10300;DHT22;5195;48.562;9.192;2022-07-01T06:19:59;18.80;60.40
10300;DHT22;5195;48.562;9.192;2022-07-01T06:22:24;18.60;60.90
10300;DHT22;5195;48.562;9.192;2022-07-01T06:24:50;18.80;60.60
10300;DHT22;5195;48.562;9.192;2022-07-01T06:27:17;18.80;60.30
10300;DHT22;5195;48.562;9.192;2022-07-01T06:29:44;18.70;60.70
10300;DHT22;5195;48.562;9.192;2022-07-01T06:32:09;18.90;59.70
10300;DHT22;5195;48.562;9.192;2022-07-01T06:34:36;19.20;57.50
10300;DHT22;5195;48.562;9.192;2022-07-01T06:37:01;19.10;57.80
10300;DHT22;5195;48.562;9.192;2022-07-01T06:39:27;19.30;57.50
10300;DHT22;5195;48.562;9.192;2022-07-01T06:41:53;19.20;58.00
10300;DHT22;5195;48.562;9.192;2022-07-01T06:44:18;18.90;58.80
10300;DHT22;5195;48.562;9.192;2022-07-01T06:46:44;19.00;58.20
10300;DHT22;5195;48.562;9.192;2022-07-01T06:49:09;18.90;58.40
10300;DHT22;5195;48.562;9.192;2022-07-01T06:51:35;19.10;58.50
10300;DHT22;5195;48.562;9.192;2022-07-01T06:54:00;19.10;58.80
10300;DHT22;5195;48.562;9.192;2022-07-01T06:56:26;19.20;57.00
10300;DHT22;5195;48.562;9.192;2022-07-01T06:58:52;19.10;57.30
10300;DHT22;5195;48.562;9.192;2022-07-01T07:01:17;18.80;57.70
10300;DHT22;5195;48.562;9.192;2022-07-01T07:03:43;18.60;58.50
10300;DHT22;5195;48.562;9.192;2022-07-01T07:06:08;18.70;58.10
10300;DHT22;5195;48.562;9.192;2022-07-01T07:08:34;18.70;58.40
10300;DHT22;5195;48.562;9.192;2022-07-01T07:11:01;19.00;58.60
10300;DHT22;5195;48.562;9.192;2022-07-01T07:13:26;18.90;58.80
10300;DHT22;5195;48.562;9.192;2022-07-01T07:15:52;19.10;58.70
10300;DHT22;5195;48.562;9.192;2022-07-01T07:18:17;19.30;58.60
10300;DHT22;5195;48.562;9.192;2022-07-01T07:20:43;19.30;58.90
10300;DHT22;5195;48.562;9.192;2022-07-01T07:23:11;19.00;59.40
10300;DHT22;5195;48.562;9.192;2022-07-01T07:25:37;19.20;57.50
10300;DHT22;5195;48.562;9.192;2022-07-01T07:28:02;19.50;56.30
10300;DHT22;5195;48.562;9.192;2022-07-01T07:30:28;19.70;55.40
10300;DHT22;5195;48.562;9.192;2022-07-01T07:32:53;19.80;55.30
10300;DHT22;5195;48.562;9.192;2022-07-01T07:35:19;19.60;55.90
10300;DHT22;5195;48.562;9.192;2022-07-01T07:37:45;19.50;55.40
10300;DHT22;5195;48.562;9.192;2022-07-01T07:40:10;19.60;55.70
10300;DHT22;5195;48.562;9.192;2022-07-01T07:42:36;19.70;55.30
10300;DHT22;5195;48.562;9.192;2022-07-01T07:45:02;19.80;55.10
10300;DHT22;5195;48.562;9.192;2022-07-01T07:47:27;19.50;55.60
10300;DHT22;5195;48.562;9.192;2022-07-01T07:49:53;19.30;55.00
10300;DHT22;5195;48.562;9.192;2022-07-01T07:52:18;19.00;55.70
10300;DHT22;5195;48.562;9.192;2022-07-01T07:54:44;19.00;54.90
10300;DHT22;5195;48.562;9.192;2022-07-01T07:57:11;19.10;55.00
10300;DHT22;5195;48.562;9.192;2022-07-01T07:59:36;19.30;54.90
10300;DHT22;5195;48.562;9.192;2022-07-01T08:02:02;19.30;54.70
10300;DHT22;5195;48.562;9.192;2022-07-01T08:04:28;19.40;54.70
10300;DHT22;5195;48.562;9.192;2022-07-01T08:06:53;19.10;55.50
10300;DHT22;5195;48.562;9.192;2022-07-01T08:09:19;18.80;56.70
10300;DHT22;5195;48.562;9.192;2022-07-01T08:11:44;18.60;57.50
10300;DHT22;5195;48.562;9.192;2022-07-01T08:14:10;18.80;57.30
10300;DHT22;5195;48.562;9.192;2022-07-01T08:16:36;19.20;56.60
10300;DHT22;5195;48.562;9.192;2022-07-01T08:19:03;19.20;56.80
10300;DHT22;5195;48.562;9.192;2022-07-01T08:21:28;19.00;57.30
10300;DHT22;5195;48.562;9.192;2022-07-01T08:23:54;18.90;58.00
10300;DHT22;5195;48.562;9.192;2022-07-01T08:26:19;18.80;58.10
10300;DHT22;5195;48.562;9.192;2022-07-01T08:28:45;18.70;58.40
10300;DHT22;5195;48.562;9.192;2022-07-01T08:31:10;18.90;58.40
10300;DHT22;5195;48.562;9.192;2022-07-01T08:33:36;19.30;56.90
10300;DHT22;5195;48.562;9.192;2022-07-01T08:36:08;19.70;56.80
10300;DHT22;5195;48.562;9.192;2022-07-01T08:38:33;19.90;56.20
10300;DHT22;5195;48.562;9.192;2022-07-01T08:40:59;20.00;54.90
10300;DHT22;5195;48.562;9.192;2022-07-01T08:43:24;20.10;54.60
10300;DHT22;5195;48.562;9.192;2022-07-01T08:45:53;20.20;54.90
10300;DHT22;5195;48.562;9.192;2022-07-01T08:48:18;20.30;54.70
10300;DHT22;5195;48.562;9.192;2022-07-01T08:50:44;20.00;55.40
10300;DHT22;5195;48.562;9.192;2022-07-01T08:53:10;19.90;56.20
10300;DHT22;5195;48.562;9.192;2022-07-01T08:55:35;20.00;55.80
10300;DHT22;5195;48.562;9.192;2022-07-01T08:58:21;20.10;55.80
10300;DHT22;5195;48.562;9.192;2022-07-01T09:00:46;20.30;55.80
10300;DHT22;5195;48.562;9.192;2022-07-01T09:03:15;20.40;54.60
10300;DHT22;5195;48.562;9.192;2022-07-01T09:05:47;20.40;54.50
10300;DHT22;5195;48.562;9.192;2022-07-01T09:08:06;20.20;55.20
10300;DHT22;5195;48.562;9.192;2022-07-01T09:10:32;20.10;53.90
10300;DHT22;5195;48.562;9.192;2022-07-01T09:13:09;19.80;54.40
10300;DHT22;5195;48.562;9.192;2022-07-01T09:15:28;19.30;55.30
10300;DHT22;5195;48.562;9.192;2022-07-01T09:18:10;19.30;56.10
10300;DHT22;5195;48.562;9.192;2022-07-01T09:20:35;19.20;56.60
10300;DHT22;5195;48.562;9.192;2022-07-01T09:23:01;19.30;56.80
10300;DHT22;5195;48.562;9.192;2022-07-01T09:25:26;19.50;56.30
10300;DHT22;5195;48.562;9.192;2022-07-01T09:28:10;19.70;56.80
10300;DHT22;5195;48.562;9.192;2022-07-01T09:30:34;19.40;57.10
10300;DHT22;5195;48.562;9.192;2022-07-01T09:33:24;19.00;58.00
10300;DHT22;5195;48.562;9.192;2022-07-01T09:35:47;18.80;58.80
10300;DHT22;5195;48.562;9.192;2022-07-01T09:38:13;19.00;58.30
10300;DHT22;5195;48.562;9.192;2022-07-01T09:43:31;19.00;58.20
10300;DHT22;5195;48.562;9.192;2022-07-01T09:46:09;18.90;58.50
10300;DHT22;5195;48.562;9.192;2022-07-01T09:51:03;18.40;59.60
10300;DHT22;5195;48.562;9.192;2022-07-01T09:53:28;18.20;60.00
10300;DHT22;5195;48.562;9.192;2022-07-01T09:55:54;18.40;59.90
10300;DHT22;5195;48.562;9.192;2022-07-01T09:58:19;18.80;60.00
10300;DHT22;5195;48.562;9.192;2022-07-01T10:00:45;19.20;59.20
10300;DHT22;5195;48.562;9.192;2022-07-01T10:03:11;19.40;57.70
10300;DHT22;5195;48.562;9.192;2022-07-01T10:05:57;19.40;58.20
10300;DHT22;5195;48.562;9.192;2022-07-01T10:14:15;19.90;56.60
10300;DHT22;5195;48.562;9.192;2022-07-01T10:16:41;19.70;57.30
10300;DHT22;5195;48.562;9.192;2022-07-01T10:21:45;19.60;55.70
10300;DHT22;5195;48.562;9.192;2022-07-01T10:24:14;19.90;54.70
10300;DHT22;5195;48.562;9.192;2022-07-01T10:26:39;20.10;56.50
10300;DHT22;5195;48.562;9.192;2022-07-01T10:29:05;20.40;55.60
10300;DHT22;5195;48.562;9.192;2022-07-01T10:31:37;20.50;56.40
10300;DHT22;5195;48.562;9.192;2022-07-01T10:34:04;20.70;56.30
10300;DHT22;5195;48.562;9.192;2022-07-01T10:36:33;20.50;56.70
10300;DHT22;5195;48.562;9.192;2022-07-01T10:41:34;20.10;57.80
10300;DHT22;5195;48.562;9.192;2022-07-01T10:43:59;20.00;58.10
10300;DHT22;5195;48.562;9.192;2022-07-01T10:46:45;19.80;58.10
10300;DHT22;5195;48.562;9.192;2022-07-01T10:49:13;19.80;58.30
10300;DHT22;5195;48.562;9.192;2022-07-01T10:51:52;20.10;56.70
10300;DHT22;5195;48.562;9.192;2022-07-01T10:59:41;20.30;55.70
10300;DHT22;5195;48.562;9.192;2022-07-01T11:02:20;20.40;54.60
10300;DHT22;5195;48.562;9.192;2022-07-01T11:04:44;20.40;55.20
10300;DHT22;5195;48.562;9.192;2022-07-01T11:07:10;20.60;54.60
10300;DHT22;5195;48.562;9.192;2022-07-01T11:09:36;20.80;53.40
10300;DHT22;5195;48.562;9.192;2022-07-01T11:12:01;21.00;53.40
10300;DHT22;5195;48.562;9.192;2022-07-01T11:14:27;20.80;54.00
10300;DHT22;5195;48.562;9.192;2022-07-01T11:16:53;20.50;55.00
10300;DHT22;5195;48.562;9.192;2022-07-01T11:19:18;20.50;55.00
10300;DHT22;5195;48.562;9.192;2022-07-01T11:21:53;20.50;55.50
10300;DHT22;5195;48.562;9.192;2022-07-01T11:24:19;20.30;56.10
10300;DHT22;5195;48.562;9.192;2022-07-01T11:26:44;20.20;56.60
10300;DHT22;5195;48.562;9.192;2022-07-01T11:29:10;20.40;55.30
10300;DHT22;5195;48.562;9.192;2022-07-01T11:31:35;20.60;55.80
10300;DHT22;5195;48.562;9.192;2022-07-01T11:34:01;20.80;54.50
10300;DHT22;5195;48.562;9.192;2022-07-01T11:36:28;21.00;55.10
10300;DHT22;5195;48.562;9.192;2022-07-01T11:39:13;21.20;52.70
10300;DHT22;5195;48.562;9.192;2022-07-01T11:41:56;21.20;53.90
10300;DHT22;5195;48.562;9.192;2022-07-01T11:44:29;21.60;54.50
10300;DHT22;5195;48.562;9.192;2022-07-01T11:46:54;22.00;52.60
10300;DHT22;5195;48.562;9.192;2022-07-01T11:49:19;22.40;51.60
10300;DHT22;5195;48.562;9.192;2022-07-01T11:51:53;22.40;52.10
10300;DHT22;5195;48.562;9.192;2022-07-01T11:54:19;22.20;52.90
10300;DHT22;5195;48.562;9.192;2022-07-01T11:56:38;22.00;53.30
10300;DHT22;5195;48.562;9.192;2022-07-01T11:59:03;22.20;50.10
10300;DHT22;5195;48.562;9.192;2022-07-01T12:03:56;22.40;52.20
10300;DHT22;5195;48.562;9.192;2022-07-01T12:06:20;22.80;49.90
10300;DHT22;5195;48.562;9.192;2022-07-01T12:08:46;23.10;48.80
10300;DHT22;5195;48.562;9.192;2022-07-01T12:11:11;23.00;49.60
10300;DHT22;5195;48.562;9.192;2022-07-01T12:13:37;23.10;50.80
10300;DHT22;5195;48.562;9.192;2022-07-01T12:16:06;23.40;49.00
10300;DHT22;5195;48.562;9.192;2022-07-01T12:18:31;23.30;49.50
10300;DHT22;5195;48.562;9.192;2022-07-01T12:20:56;23.10;49.90
10300;DHT22;5195;48.562;9.192;2022-07-01T12:23:23;23.00;50.70
10300;DHT22;5195;48.562;9.192;2022-07-01T12:25:49;22.90;50.30
10300;DHT22;5195;48.562;9.192;2022-07-01T12:28:38;23.00;47.70
10300;DHT22;5195;48.562;9.192;2022-07-01T12:31:06;23.40;49.00
10300;DHT22;5195;48.562;9.192;2022-07-01T12:33:28;23.80;50.10
10300;DHT22;5195;48.562;9.192;2022-07-01T12:35:54;24.00;46.90
10300;DHT22;5195;48.562;9.192;2022-07-01T12:38:19;23.90;48.10
10300;DHT22;5195;48.562;9.192;2022-07-01T12:40:45;23.80;45.90
10300;DHT22;5195;48.562;9.192;2022-07-01T12:43:30;23.60;47.00
10300;DHT22;5195;48.562;9.192;2022-07-01T12:45:52;23.30;47.60
10300;DHT22;5195;48.562;9.192;2022-07-01T12:48:18;23.00;48.80
10300;DHT22;5195;48.562;9.192;2022-07-01T12:50:43;22.80;49.10
10300;DHT22;5195;48.562;9.192;2022-07-01T12:53:10;22.50;49.50
10300;DHT22;5195;48.562;9.192;2022-07-01T12:55:36;22.50;48.50
10300;DHT22;5195;48.562;9.192;2022-07-01T12:58:00;22.70;47.60
10300;DHT22;5195;48.562;9.192;2022-07-01T13:00:26;22.80;47.50
10300;DHT22;5195;48.562;9.192;2022-07-01T13:02:51;22.50;48.30
10300;DHT22;5195;48.562;9.192;2022-07-01T13:05:17;22.40;48.50
10300;DHT22;5195;48.562;9.192;2022-07-01T13:07:44;22.20;49.00
10300;DHT22;5195;48.562;9.192;2022-07-01T13:10:10;22.10;49.10
10300;DHT22;5195;48.562;9.192;2022-07-01T13:12:36;22.20;47.90
10300;DHT22;5195;48.562;9.192;2022-07-01T13:15:02;22.00;48.70
10300;DHT22;5195;48.562;9.192;2022-07-01T13:17:27;21.80;49.70
10300;DHT22;5195;48.562;9.192;2022-07-01T13:19:53;21.90;48.60
10300;DHT22;5195;48.562;9.192;2022-07-01T13:22:19;21.90;49.30
10300;DHT22;5195;48.562;9.192;2022-07-01T13:24:44;22.00;48.00
10300;DHT22;5195;48.562;9.192;2022-07-01T13:27:09;21.90;48.80
10300;DHT22;5195;48.562;9.192;2022-07-01T13:29:35;21.70;49.40
10300;DHT22;5195;48.562;9.192;2022-07-01T13:32:02;21.80;48.90
10300;DHT22;5195;48.562;9.192;2022-07-01T13:34:27;22.10;48.20
10300;DHT22;5195;48.562;9.192;2022-07-01T13:36:53;22.30;47.10
10300;DHT22;5195;48.562;9.192;2022-07-01T13:39:18;22.30;48.00
10300;DHT22;5195;48.562;9.192;2022-07-01T13:41:44;22.30;47.90
10300;DHT22;5195;48.562;9.192;2022-07-01T13:44:10;22.60;46.60
10300;DHT22;5195;48.562;9.192;2022-07-01T13:46:35;22.60;47.80
10300;DHT22;5195;48.562;9.192;2022-07-01T13:49:01;22.70;47.30
10300;DHT22;5195;48.562;9.192;2022-07-01T13:51:26;23.00;46.30
10300;DHT22;5195;48.562;9.192;2022-07-01T13:53:52;22.90;47.00
10300;DHT22;5195;48.562;9.192;2022-07-01T13:56:17;23.00;46.10
10300;DHT22;5195;48.562;9.192;2022-07-01T13:58:43;23.30;45.00
10300;DHT22;5195;48.562;9.192;2022-07-01T14:01:09;23.30;45.80
10300;DHT22;5195;48.562;9.192;2022-07-01T14:03:34;23.00;46.90
10300;DHT22;5195;48.562;9.192;2022-07-01T14:06:00;23.10;46.10
10300;DHT22;5195;48.562;9.192;2022-07-01T14:08:27;23.00;46.70
10300;DHT22;5195;48.562;9.192;2022-07-01T14:10:56;22.90;47.30
10300;DHT22;5195;48.562;9.192;2022-07-01T14:13:21;23.00;44.20
10300;DHT22;5195;48.562;9.192;2022-07-01T14:15:47;23.30;45.40
10300;DHT22;5195;48.562;9.192;2022-07-01T14:18:14;23.20;46.60
10300;DHT22;5195;48.562;9.192;2022-07-01T14:20:40;23.00;47.30
10300;DHT22;5195;48.562;9.192;2022-07-01T14:23:05;22.70;47.50
10300;DHT22;5195;48.562;9.192;2022-07-01T14:25:31;22.80;45.10
10300;DHT22;5195;48.562;9.192;2022-07-01T14:27:56;22.80;46.30
10300;DHT22;5195;48.562;9.192;2022-07-01T14:30:22;22.90;45.50
10300;DHT22;5195;48.562;9.192;2022-07-01T14:32:47;22.80;46.50
10300;DHT22;5195;48.562;9.192;2022-07-01T14:35:13;22.90;45.80
10300;DHT22;5195;48.562;9.192;2022-07-01T14:37:38;23.10;44.70
10300;DHT22;5195;48.562;9.192;2022-07-01T14:40:04;23.30;44.20
10300;DHT22;5195;48.562;9.192;2022-07-01T14:42:30;23.10;44.70
10300;DHT22;5195;48.562;9.192;2022-07-01T14:44:56;23.00;42.50
10300;DHT22;5195;48.562;9.192;2022-07-01T14:47:21;22.80;44.00
10300;DHT22;5195;48.562;9.192;2022-07-01T14:49:47;22.40;44.50
10300;DHT22;5195;48.562;9.192;2022-07-01T14:52:12;22.10;45.00
10300;DHT22;5195;48.562;9.192;2022-07-01T14:54:38;21.80;45.70
10300;DHT22;5195;48.562;9.192;2022-07-01T14:57:04;21.70;46.70
10300;DHT22;5195;48.562;9.192;2022-07-01T14:59:29;22.00;46.80
10300;DHT22;5195;48.562;9.192;2022-07-01T15:01:54;22.10;47.40
10300;DHT22;5195;48.562;9.192;2022-07-01T15:04:20;22.30;44.30
10300;DHT22;5195;48.562;9.192;2022-07-01T15:06:46;22.40;45.30
10300;DHT22;5195;48.562;9.192;2022-07-01T15:09:11;22.30;46.00
10300;DHT22;5195;48.562;9.192;2022-07-01T15:11:37;22.50;44.30
10300;DHT22;5195;48.562;9.192;2022-07-01T15:14:02;22.50;45.20
10300;DHT22;5195;48.562;9.192;2022-07-01T15:16:28;22.70;44.20
10300;DHT22;5195;48.562;9.192;2022-07-01T15:18:53;22.90;42.70
10300;DHT22;5195;48.562;9.192;2022-07-01T15:21:19;23.20;42.00
10300;DHT22;5195;48.562;9.192;2022-07-01T15:23:45;22.90;43.30
10300;DHT22;5195;48.562;9.192;2022-07-01T15:26:10;22.90;41.50
10300;DHT22;5195;48.562;9.192;2022-07-01T15:28:38;23.10;41.80
10300;DHT22;5195;48.562;9.192;2022-07-01T15:31:04;23.10;41.50
10300;DHT22;5195;48.562;9.192;2022-07-01T15:33:29;23.30;42.60
10300;DHT22;5195;48.562;9.192;2022-07-01T15:35:55;23.40;42.80
10300;DHT22;5195;48.562;9.192;2022-07-01T15:38:20;23.50;43.00
10300;DHT22;5195;48.562;9.192;2022-07-01T15:40:48;23.60;41.30
10300;DHT22;5195;48.562;9.192;2022-07-01T15:43:13;23.70;41.20
10300;DHT22;5195;48.562;9.192;2022-07-01T15:45:38;23.70;41.10
10300;DHT22;5195;48.562;9.192;2022-07-01T15:48:05;23.40;42.30
10300;DHT22;5195;48.562;9.192;2022-07-01T15:50:32;23.40;41.30
10300;DHT22;5195;48.562;9.192;2022-07-01T15:52:57;23.30;43.00
10300;DHT22;5195;48.562;9.192;2022-07-01T15:55:23;23.30;40.90
10300;DHT22;5195;48.562;9.192;2022-07-01T15:57:49;23.20;42.20
10300;DHT22;5195;48.562;9.192;2022-07-01T16:00:14;23.30;42.00
10300;DHT22;5195;48.562;9.192;2022-07-01T16:02:40;23.20;43.50
10300;DHT22;5195;48.562;9.192;2022-07-01T16:05:06;23.30;42.30